createdAt,value
2023-02-22T00:01:47.606Z,1.81
2023-02-22T00:04:16.149Z,1.40
2023-02-22T00:06:42.940Z,1.42
2023-02-22T00:09:10.369Z,1.30
2023-02-22T00:11:38.739Z,1.16
2023-02-22T00:14:05.706Z,1.45
2023-02-22T00:16:32.594Z,1.66
2023-02-22T00:18:59.468Z,1.63
2023-02-22T00:21:26.239Z,1.57
2023-02-22T00:23:54.781Z,1.52
2023-02-22T00:26:23.509Z,1.48
2023-02-22T00:28:54.456Z,1.35
2023-02-22T00:31:21.622Z,1.66
2023-02-22T00:33:49.549Z,1.68
2023-02-22T00:36:17.254Z,1.69
2023-02-22T00:38:43.981Z,1.56
2023-02-22T00:41:12.486Z,1.46
2023-02-22T00:43:39.286Z,1.46
2023-02-22T00:46:06.274Z,1.46
2023-02-22T00:48:32.994Z,1.46
2023-02-22T00:50:59.802Z,1.32
2023-02-22T00:53:26.683Z,1.32
2023-02-22T00:55:54.028Z,1.20
2023-02-22T00:58:20.679Z,1.11
2023-02-22T01:00:48.354Z,1.00
2023-02-22T01:03:18.482Z,0.98
2023-02-22T01:05:45.641Z,1.02
2023-02-22T01:08:14.631Z,1.07
2023-02-22T01:10:42.156Z,1.01
2023-02-22T01:13:12.331Z,0.91
2023-02-22T01:15:42.013Z,0.75
2023-02-22T01:18:09.477Z,0.84
2023-02-22T01:20:36.518Z,1.00
2023-02-22T01:23:07.062Z,0.84
2023-02-22T01:25:34.868Z,0.70
2023-02-22T01:28:02.685Z,0.50
2023-02-22T01:30:33.059Z,0.40
2023-02-22T01:33:01.526Z,0.15
2023-02-22T01:35:37.383Z,0.27
2023-02-22T01:38:04.472Z,0.24
2023-02-22T01:40:35.056Z,0.43
2023-02-22T01:43:14.256Z,0.43
2023-02-22T01:45:50.060Z,0.52
2023-02-22T01:48:35.408Z,0.59
2023-02-22T01:51:22.855Z,0.74
2023-02-22T01:53:58.154Z,0.87
2023-02-22T01:56:27.683Z,0.99
2023-02-22T01:59:09.050Z,1.04
2023-02-22T02:01:38.132Z,1.05
2023-02-22T02:04:10.257Z,0.90
2023-02-22T02:06:37.843Z,0.71
2023-02-22T02:09:21.221Z,0.64
2023-02-22T02:11:49.596Z,0.65
2023-02-22T02:14:17.037Z,0.66
2023-02-22T02:16:51.096Z,0.76
2023-02-22T02:19:47.690Z,0.72
2023-02-22T02:22:26.562Z,0.82
2023-02-22T02:25:10.863Z,0.81
2023-02-22T02:27:52.845Z,0.68
2023-02-22T02:30:58.388Z,0.31
2023-02-22T02:33:34.070Z,0.24
2023-02-22T02:36:06.590Z,0.25
2023-02-22T02:38:54.658Z,0.38
2023-02-22T02:41:31.007Z,0.58
2023-02-22T02:44:04.249Z,0.41
2023-02-22T02:46:45.704Z,0.46
2023-02-22T02:49:19.353Z,0.43
2023-02-22T02:51:51.827Z,0.38
2023-02-22T02:54:19.703Z,0.34
2023-02-22T02:56:47.434Z,0.15
2023-02-22T02:59:33.114Z,0.07
2023-02-22T03:02:03.168Z,0.28
2023-02-22T03:05:08.262Z,0.30
2023-02-22T03:08:10.149Z,0.28
2023-02-22T03:10:52.053Z,0.32
2023-02-22T03:13:52.102Z,0.22
2023-02-22T03:16:50.333Z,0.12
2023-02-22T03:19:26.090Z,-0.04
2023-02-22T03:22:17.476Z,-0.11
2023-02-22T03:24:53.176Z,-0.31
2023-02-22T03:27:28.560Z,-0.32
2023-02-22T03:30:03.718Z,-0.31
2023-02-22T03:32:38.023Z,-0.25
2023-02-22T03:35:30.580Z,-0.16
2023-02-22T03:38:02.209Z,-0.13
2023-02-22T03:40:34.872Z,-0.10
2023-02-22T03:43:15.269Z,-0.13
2023-02-22T03:45:46.870Z,-0.15
2023-02-22T03:48:31.524Z,-0.18
2023-02-22T03:51:04.437Z,-0.20
2023-02-22T03:53:34.764Z,-0.28
2023-02-22T03:56:07.272Z,-0.19
2023-02-22T03:58:36.935Z,-0.16
2023-02-22T04:01:04.021Z,-0.09
2023-02-22T04:03:31.169Z,-0.09
2023-02-22T04:05:58.248Z,-0.15
2023-02-22T04:08:25.042Z,-0.19
2023-02-22T04:10:52.313Z,-0.24
2023-02-22T04:13:22.383Z,-0.46
2023-02-22T04:15:51.530Z,-0.34
2023-02-22T04:18:18.308Z,-0.37
2023-02-22T04:20:46.708Z,-0.47
2023-02-22T04:23:23.589Z,-0.51
2023-02-22T04:25:50.318Z,-0.61
2023-02-22T04:28:18.162Z,-0.65
2023-02-22T04:30:51.226Z,-0.65
2023-02-22T04:33:19.360Z,-0.61
2023-02-22T04:35:46.531Z,-0.53
2023-02-22T04:38:13.826Z,-0.54
2023-02-22T04:40:41.063Z,-0.56
2023-02-22T04:43:08.075Z,-0.64
2023-02-22T04:45:34.922Z,-0.64
2023-02-22T04:48:03.478Z,-0.60
2023-02-22T04:50:30.261Z,-0.56
2023-02-22T04:52:57.499Z,-0.50
2023-02-22T04:55:24.269Z,-0.58
2023-02-22T04:57:51.010Z,-0.69
2023-02-22T05:00:19.158Z,-0.57
2023-02-22T05:02:46.295Z,-0.49
2023-02-22T05:05:15.538Z,-0.42
2023-02-22T05:07:42.524Z,-0.40
2023-02-22T05:10:10.142Z,-0.50
2023-02-22T05:12:37.544Z,-0.62
2023-02-22T05:15:07.094Z,-0.69
2023-02-22T05:17:34.809Z,-0.60
2023-02-22T05:20:03.134Z,-0.54
2023-02-22T05:22:30.174Z,-0.43
2023-02-22T05:24:57.028Z,-0.43
2023-02-22T05:27:23.747Z,-0.39
2023-02-22T05:29:50.612Z,-0.40
2023-02-22T05:32:17.398Z,-0.48
2023-02-22T05:34:44.124Z,-0.59
2023-02-22T05:37:10.836Z,-0.70
2023-02-22T05:39:37.523Z,-0.73
2023-02-22T05:42:04.430Z,-0.79
2023-02-22T05:44:31.185Z,-0.86
2023-02-22T05:46:57.857Z,-0.90
2023-02-22T05:49:24.632Z,-0.93
2023-02-22T05:51:51.766Z,-1.03
2023-02-22T05:54:18.542Z,-1.13
2023-02-22T05:56:45.292Z,-1.21
2023-02-22T05:59:12.385Z,-1.18
2023-02-22T06:01:39.178Z,-1.21
2023-02-22T06:04:06.012Z,-1.20
2023-02-22T06:06:33.006Z,-1.13
2023-02-22T06:08:59.756Z,-1.09
2023-02-22T06:11:26.535Z,-1.13
2023-02-22T06:13:53.964Z,-1.06
2023-02-22T06:16:22.643Z,-1.16
2023-02-22T06:18:50.419Z,-0.94
2023-02-22T06:21:17.948Z,-0.87
2023-02-22T06:23:45.148Z,-0.67
2023-02-22T06:26:11.858Z,-0.53
2023-02-22T06:28:38.550Z,-0.51
2023-02-22T06:31:05.457Z,-0.45
2023-02-22T06:33:32.335Z,-0.54
2023-02-22T06:35:59.250Z,-0.54
2023-02-22T06:38:27.827Z,-0.55
2023-02-22T06:40:55.418Z,-0.40
2023-02-22T06:43:24.301Z,-0.46
2023-02-22T06:45:51.661Z,-0.43
2023-02-22T06:48:18.701Z,-0.42
2023-02-22T06:50:45.486Z,-0.34
2023-02-22T06:53:12.283Z,-0.37
2023-02-22T06:55:39.293Z,-0.07
2023-02-22T06:58:06.219Z,0.04
2023-02-22T07:00:33.797Z,0.12
2023-02-22T07:03:01.433Z,0.27
2023-02-22T07:05:28.645Z,0.47
2023-02-22T07:08:02.480Z,0.58
2023-02-22T07:10:31.506Z,0.71
2023-02-22T07:12:58.343Z,0.77
2023-02-22T07:15:27.962Z,0.81
2023-02-22T07:17:55.392Z,0.88
2023-02-22T07:20:23.439Z,0.96
2023-02-22T07:22:50.937Z,1.24
2023-02-22T07:25:20.051Z,1.41
2023-02-22T07:27:47.239Z,1.62
2023-02-22T07:30:19.590Z,1.77
2023-02-22T07:32:46.987Z,1.95
2023-02-22T07:35:14.652Z,2.10
2023-02-22T07:37:41.400Z,2.23
2023-02-22T07:40:08.654Z,2.49
2023-02-22T07:42:50.013Z,2.62
2023-02-22T07:45:17.097Z,2.76
2023-02-22T07:47:44.077Z,2.83
2023-02-22T07:50:10.767Z,2.90
2023-02-22T07:52:37.518Z,3.06
2023-02-22T07:55:04.450Z,3.22
2023-02-22T07:57:31.191Z,3.45
2023-02-22T07:59:57.931Z,3.58
2023-02-22T08:02:26.655Z,3.77
2023-02-22T08:04:53.447Z,3.87
2023-02-22T08:07:20.154Z,4.19
2023-02-22T08:09:46.859Z,4.18
2023-02-22T08:12:13.600Z,4.60
2023-02-22T08:14:40.542Z,4.79
2023-02-22T08:17:08.816Z,4.59
2023-02-22T08:19:35.672Z,4.92
2023-02-22T08:22:02.421Z,5.25
2023-02-22T08:24:29.131Z,5.35
2023-02-22T08:26:55.913Z,5.46
2023-02-22T08:29:23.842Z,5.55
2023-02-22T08:31:54.047Z,5.77
2023-02-22T08:34:20.957Z,5.75
2023-02-22T08:36:47.902Z,5.89
2023-02-22T08:39:14.660Z,6.05
2023-02-22T08:41:41.364Z,6.26
2023-02-22T08:44:08.220Z,6.23
2023-02-22T08:46:34.982Z,6.59
2023-02-22T08:49:03.102Z,6.44
2023-02-22T08:51:29.804Z,6.82
2023-02-22T08:53:56.567Z,7.17
2023-02-22T08:56:23.394Z,7.27
2023-02-22T08:58:50.082Z,7.29
2023-02-22T09:01:24.775Z,7.61
2023-02-22T09:03:58.435Z,7.83
2023-02-22T09:06:25.232Z,7.86
2023-02-22T09:08:51.917Z,8.27
2023-02-22T09:11:18.879Z,8.56
2023-02-22T09:13:45.696Z,8.85
2023-02-22T09:16:12.487Z,8.97
2023-02-22T09:18:44.195Z,9.16
2023-02-22T09:21:12.441Z,9.52
2023-02-22T09:23:39.147Z,9.47
2023-02-22T09:26:09.035Z,9.51
2023-02-22T09:28:36.131Z,9.38
2023-02-22T09:31:02.846Z,9.21
2023-02-22T09:33:29.637Z,9.23
2023-02-22T09:35:56.460Z,9.58
2023-02-22T09:38:24.832Z,9.74
2023-02-22T09:40:55.303Z,9.91
2023-02-22T09:43:35.669Z,10.05
2023-02-22T09:46:13.621Z,10.31
2023-02-22T09:48:57.935Z,10.49
2023-02-22T09:51:35.834Z,10.47
2023-02-22T09:54:06.597Z,10.49
2023-02-22T09:56:34.092Z,10.66
2023-02-22T09:59:04.149Z,10.67
2023-02-22T10:01:42.681Z,11.19
2023-02-22T10:04:23.045Z,11.59
2023-02-22T10:06:55.893Z,11.52
2023-02-22T10:09:27.609Z,11.72
2023-02-22T10:12:02.676Z,12.34
2023-02-22T10:14:44.016Z,12.78
2023-02-22T10:17:29.735Z,13.33
2023-02-22T10:20:18.887Z,14.17
2023-02-22T10:23:05.874Z,14.83
2023-02-22T10:25:37.908Z,14.48
2023-02-22T10:28:19.802Z,14.67
2023-02-22T10:31:08.921Z,15.41
2023-02-22T10:33:46.333Z,16.00
2023-02-22T10:36:20.062Z,16.68
2023-02-22T10:39:00.310Z,16.94
2023-02-22T10:41:34.530Z,17.18
2023-02-22T10:44:02.932Z,17.17
2023-02-22T10:46:31.991Z,17.49
2023-02-22T10:49:04.502Z,17.61
2023-02-22T10:51:31.203Z,16.26
2023-02-22T10:54:27.068Z,16.92
2023-02-22T10:56:56.287Z,17.59
2023-02-22T10:59:42.503Z,17.88
2023-02-22T11:02:21.389Z,18.25
2023-02-22T11:04:54.248Z,17.93
2023-02-22T11:07:30.430Z,17.62
2023-02-22T11:10:09.578Z,17.35
2023-02-22T11:12:42.429Z,16.99
2023-02-22T11:15:22.295Z,17.15
2023-02-22T11:17:52.007Z,17.42
2023-02-22T11:20:35.018Z,17.46
2023-02-22T11:23:04.003Z,17.68
2023-02-22T11:25:36.837Z,17.88
2023-02-22T11:28:10.065Z,17.77
2023-02-22T11:30:37.511Z,17.42
2023-02-22T11:33:16.154Z,17.17
2023-02-22T11:35:52.704Z,16.95
2023-02-22T11:38:23.903Z,17.35
2023-02-22T11:41:17.303Z,17.73
2023-02-22T11:43:46.968Z,17.89
2023-02-22T11:46:22.827Z,17.79
2023-02-22T11:49:01.001Z,18.04
2023-02-22T11:51:50.569Z,18.12
2023-02-22T11:54:35.933Z,17.39
2023-02-22T11:57:27.189Z,17.67
2023-02-22T12:00:24.951Z,17.79
2023-02-22T12:03:06.603Z,17.54
2023-02-22T12:05:59.664Z,17.46
2023-02-22T12:08:47.355Z,17.64
2023-02-22T12:11:47.709Z,17.83
2023-02-22T12:14:48.653Z,17.52
2023-02-22T12:17:23.416Z,17.93
2023-02-22T12:19:54.712Z,17.55
2023-02-22T12:22:24.858Z,17.51
2023-02-22T12:25:09.744Z,17.48
2023-02-22T12:28:00.692Z,17.40
2023-02-22T12:30:40.972Z,16.95
2023-02-22T12:33:27.063Z,16.96
2023-02-22T12:35:56.846Z,17.01
2023-02-22T12:38:44.546Z,16.20
2023-02-22T12:41:47.080Z,16.21
2023-02-22T12:44:31.547Z,16.10
2023-02-22T12:47:00.121Z,16.44
2023-02-22T12:49:52.099Z,16.45
2023-02-22T12:52:48.457Z,16.59
2023-02-22T12:55:16.000Z,17.09
2023-02-22T12:58:12.114Z,16.97
2023-02-22T13:00:47.459Z,16.80
2023-02-22T13:03:29.085Z,16.99
2023-02-22T13:06:13.818Z,16.21
2023-02-22T13:08:49.751Z,16.60
2023-02-22T13:12:03.423Z,16.92
2023-02-22T13:14:39.828Z,16.65
2023-02-22T13:17:25.646Z,17.07
2023-02-22T13:20:14.849Z,17.10
2023-02-22T13:23:15.059Z,17.96
2023-02-22T13:25:58.775Z,18.35
2023-02-22T13:28:46.579Z,17.71
2023-02-22T13:31:13.246Z,17.94
2023-02-22T13:33:42.676Z,18.28
2023-02-22T13:36:35.073Z,18.77
2023-02-22T13:39:17.073Z,18.87
2023-02-22T13:41:55.052Z,18.55
2023-02-22T13:44:40.847Z,18.29
2023-02-22T13:47:49.749Z,17.69
2023-02-22T13:50:28.827Z,17.69
2023-02-22T13:52:57.630Z,17.67
2023-02-22T13:55:33.043Z,17.85
2023-02-22T13:58:12.064Z,17.92
2023-02-22T14:00:48.509Z,18.53
2023-02-22T14:03:15.326Z,18.78
2023-02-22T14:05:42.467Z,18.81
2023-02-22T14:08:38.548Z,18.68
2023-02-22T14:11:14.852Z,18.04
2023-02-22T14:14:11.403Z,18.07
2023-02-22T14:16:38.159Z,18.25
2023-02-22T14:19:23.721Z,18.47
2023-02-22T14:22:02.109Z,18.48
2023-02-22T14:24:44.749Z,18.35
2023-02-22T14:27:12.228Z,18.40
2023-02-22T14:29:51.228Z,18.37
2023-02-22T14:32:18.789Z,17.91
2023-02-22T14:34:51.939Z,17.90
2023-02-22T14:37:24.996Z,17.72
2023-02-22T14:40:12.884Z,17.59
2023-02-22T14:42:45.691Z,16.82
2023-02-22T14:45:23.029Z,16.23
2023-02-22T14:48:18.689Z,16.08
2023-02-22T14:51:05.895Z,15.96
2023-02-22T14:53:44.334Z,15.59
2023-02-22T14:56:44.211Z,15.55
2023-02-22T14:59:18.614Z,15.50
2023-02-22T15:02:05.813Z,15.48
2023-02-22T15:04:35.496Z,15.56
2023-02-22T15:07:21.003Z,15.51
2023-02-22T15:09:48.483Z,15.39
2023-02-22T15:12:31.214Z,15.32
2023-02-22T15:15:21.966Z,15.38
2023-02-22T15:17:56.580Z,15.68
2023-02-22T15:20:25.722Z,16.06
2023-02-22T15:22:59.906Z,16.45
2023-02-22T15:25:30.714Z,16.72
2023-02-22T15:28:03.255Z,16.86
2023-02-22T15:30:34.591Z,16.93
2023-02-22T15:33:24.137Z,16.93
2023-02-22T15:35:57.773Z,16.94
2023-02-22T15:38:29.809Z,16.91
2023-02-22T15:41:04.658Z,16.81
2023-02-22T15:43:32.706Z,16.67
2023-02-22T15:46:00.897Z,16.61
2023-02-22T15:48:28.856Z,16.28
2023-02-22T15:51:06.540Z,16.09
2023-02-22T15:53:40.121Z,15.64
2023-02-22T15:56:12.422Z,15.48
2023-02-22T15:58:39.773Z,15.50
2023-02-22T16:01:14.264Z,15.42
2023-02-22T16:03:48.158Z,15.34
2023-02-22T16:06:28.724Z,15.16
2023-02-22T16:08:58.853Z,15.10
2023-02-22T16:11:35.277Z,15.16
2023-02-22T16:14:07.721Z,15.12
2023-02-22T16:16:37.497Z,14.94
2023-02-22T16:19:28.791Z,14.62
2023-02-22T16:22:03.001Z,14.38
2023-02-22T16:24:36.354Z,14.14
2023-02-22T16:27:15.939Z,13.88
2023-02-22T16:29:43.009Z,13.67
2023-02-22T16:32:09.730Z,13.45
2023-02-22T16:34:36.545Z,13.26
2023-02-22T16:37:03.380Z,13.11
2023-02-22T16:39:34.761Z,12.98
2023-02-22T16:42:05.382Z,12.84
2023-02-22T16:44:34.991Z,12.71
2023-02-22T16:47:02.630Z,12.59
2023-02-22T16:49:29.908Z,12.50
2023-02-22T16:51:59.630Z,12.33
2023-02-22T16:54:50.246Z,12.17
2023-02-22T16:57:24.167Z,12.01
2023-02-22T16:59:55.677Z,11.90
2023-02-22T17:02:22.886Z,11.76
2023-02-22T17:04:50.000Z,11.60
2023-02-22T17:07:30.390Z,11.49
2023-02-22T17:10:01.559Z,11.39
2023-02-22T17:12:32.524Z,11.32
2023-02-22T17:14:59.288Z,11.21
2023-02-22T17:17:26.928Z,11.21
2023-02-22T17:19:55.237Z,11.14
2023-02-22T17:22:22.927Z,11.05
2023-02-22T17:24:50.767Z,11.01
2023-02-22T17:27:17.526Z,10.99
2023-02-22T17:29:45.842Z,10.90
2023-02-22T17:32:13.753Z,10.89
2023-02-22T17:34:42.167Z,10.81
2023-02-22T17:37:10.901Z,10.74
2023-02-22T17:39:37.604Z,10.64
2023-02-22T17:42:04.474Z,10.57
2023-02-22T17:44:32.379Z,10.50
2023-02-22T17:46:59.690Z,10.36
2023-02-22T17:49:26.406Z,10.33
2023-02-22T17:51:53.234Z,10.28
2023-02-22T17:54:20.875Z,10.21
2023-02-22T17:56:48.603Z,10.14
2023-02-22T17:59:15.599Z,10.03
2023-02-22T18:01:44.480Z,9.97
2023-02-22T18:04:11.797Z,9.96
2023-02-22T18:06:39.728Z,9.90
2023-02-22T18:09:10.616Z,9.82
2023-02-22T18:11:39.155Z,9.69
2023-02-22T18:14:10.091Z,9.65
2023-02-22T18:16:38.944Z,9.54
2023-02-22T18:19:05.709Z,9.46
2023-02-22T18:21:32.439Z,9.38
2023-02-22T18:23:59.266Z,9.32
2023-02-22T18:26:26.740Z,9.20
2023-02-22T18:28:53.838Z,9.25
2023-02-22T18:31:22.360Z,9.23
2023-02-22T18:33:51.821Z,9.19
2023-02-22T18:36:23.018Z,9.14
2023-02-22T18:38:52.337Z,9.06
2023-02-22T18:41:20.770Z,9.03
2023-02-22T18:43:47.524Z,8.94
2023-02-22T18:46:18.210Z,8.82
2023-02-22T18:48:46.898Z,8.68
2023-02-22T18:51:15.698Z,8.55
2023-02-22T18:53:47.090Z,8.37
2023-02-22T18:56:21.749Z,7.75
2023-02-22T18:58:53.864Z,7.65
2023-02-22T19:01:22.511Z,7.54
2023-02-22T19:03:52.242Z,7.47
2023-02-22T19:06:23.123Z,7.26
2023-02-22T19:08:51.219Z,7.05
2023-02-22T19:11:23.784Z,7.00
2023-02-22T19:13:53.912Z,7.00
2023-02-22T19:16:22.812Z,7.01
2023-02-22T19:18:53.096Z,7.10
2023-02-22T19:21:22.268Z,6.96
2023-02-22T19:23:50.789Z,6.98
2023-02-22T19:26:26.141Z,6.81
2023-02-22T19:28:59.142Z,6.68
2023-02-22T19:31:34.817Z,6.69
2023-02-22T19:34:09.376Z,6.53
2023-02-22T19:36:46.080Z,6.60
2023-02-22T19:39:15.248Z,6.63
2023-02-22T19:41:42.442Z,6.63
2023-02-22T19:44:10.021Z,6.65
2023-02-22T19:46:37.953Z,6.54
2023-02-22T19:49:05.713Z,6.58
2023-02-22T19:51:33.288Z,6.43
2023-02-22T19:54:05.694Z,6.30
2023-02-22T19:56:35.496Z,6.36
2023-02-22T19:59:13.698Z,6.45
2023-02-22T20:01:44.147Z,6.37
2023-02-22T20:04:18.374Z,6.10
2023-02-22T20:06:48.860Z,5.84
2023-02-22T20:09:43.391Z,5.81
2023-02-22T20:12:10.265Z,5.57
2023-02-22T20:14:37.358Z,5.43
2023-02-22T20:17:05.009Z,5.43
2023-02-22T20:19:32.812Z,5.37
2023-02-22T20:22:00.405Z,5.14
2023-02-22T20:24:27.771Z,5.09
2023-02-22T20:26:56.577Z,4.94
2023-02-22T20:29:29.557Z,4.99
2023-02-22T20:31:58.709Z,4.96
2023-02-22T20:34:33.475Z,5.00
2023-02-22T20:37:01.349Z,5.01
2023-02-22T20:39:28.133Z,5.04
2023-02-22T20:41:55.213Z,4.91
2023-02-22T20:44:22.509Z,4.89
2023-02-22T20:46:50.857Z,4.93
2023-02-22T20:49:19.729Z,4.58
2023-02-22T20:51:48.151Z,4.39
2023-02-22T20:54:16.094Z,4.35
2023-02-22T20:56:44.845Z,4.41
2023-02-22T20:59:14.208Z,4.43
2023-02-22T21:01:42.212Z,4.37
2023-02-22T21:04:10.182Z,4.42
2023-02-22T21:06:38.974Z,4.35
2023-02-22T21:09:08.741Z,4.19
2023-02-22T21:11:36.016Z,4.30
2023-02-22T21:14:02.994Z,4.19
2023-02-22T21:16:32.887Z,4.09
2023-02-22T21:19:01.914Z,4.05
2023-02-22T21:21:29.262Z,3.89
2023-02-22T21:23:57.418Z,3.89
2023-02-22T21:26:29.702Z,3.73
2023-02-22T21:29:00.475Z,3.51
2023-02-22T21:31:28.474Z,3.40
2023-02-22T21:33:57.776Z,3.46
2023-02-22T21:36:25.851Z,3.56
2023-02-22T21:38:55.426Z,3.57
2023-02-22T21:41:27.622Z,3.48
2023-02-22T21:43:56.500Z,3.48
2023-02-22T21:46:24.991Z,3.33
2023-02-22T21:48:51.834Z,3.32
2023-02-22T21:51:25.436Z,3.29
2023-02-22T21:53:54.134Z,3.21
2023-02-22T21:56:29.905Z,3.22
2023-02-22T21:58:59.862Z,3.26
2023-02-22T22:01:31.916Z,3.14
2023-02-22T22:04:00.471Z,2.78
2023-02-22T22:06:29.432Z,2.70
2023-02-22T22:08:57.304Z,2.76
2023-02-22T22:11:25.219Z,2.54
2023-02-22T22:13:57.573Z,2.67
2023-02-22T22:16:27.243Z,2.69
2023-02-22T22:18:55.166Z,2.68
2023-02-22T22:21:23.895Z,2.70
2023-02-22T22:23:54.388Z,2.77
2023-02-22T22:26:24.618Z,2.75
2023-02-22T22:28:56.208Z,2.81
2023-02-22T22:31:25.928Z,2.77
2023-02-22T22:33:54.434Z,2.78
2023-02-22T22:36:22.699Z,2.82
2023-02-22T22:38:49.701Z,2.84
2023-02-22T22:41:19.302Z,2.90
2023-02-22T22:43:47.165Z,3.01
2023-02-22T22:46:16.747Z,2.97
2023-02-22T22:48:47.121Z,2.76
2023-02-22T22:51:21.355Z,2.75
2023-02-22T22:53:49.961Z,2.79
2023-02-22T22:56:26.890Z,2.86
2023-02-22T22:58:56.301Z,2.94
2023-02-22T23:01:31.783Z,2.91
2023-02-22T23:04:02.246Z,2.89
2023-02-22T23:06:34.034Z,2.80
2023-02-22T23:09:12.642Z,2.59
2023-02-22T23:11:44.561Z,2.59
2023-02-22T23:14:13.974Z,2.60
2023-02-22T23:16:42.343Z,2.59
2023-02-22T23:19:09.599Z,2.58
2023-02-22T23:21:36.692Z,2.54
2023-02-22T23:24:07.677Z,2.34
2023-02-22T23:26:35.081Z,1.99
2023-02-22T23:29:02.141Z,1.98
2023-02-22T23:31:29.255Z,2.17
2023-02-22T23:33:58.644Z,2.35
2023-02-22T23:36:26.950Z,2.42
2023-02-22T23:38:54.300Z,2.36
2023-02-22T23:41:25.213Z,2.40
2023-02-22T23:43:52.008Z,2.30
2023-02-22T23:46:18.930Z,2.17
2023-02-22T23:48:54.709Z,2.29
2023-02-22T23:51:26.342Z,2.30
2023-02-22T23:53:57.521Z,2.13
2023-02-22T23:56:27.579Z,2.22
2023-02-22T23:58:57.615Z,2.18
